| time (UTC) | temp F | wind direction | speed MPH | gust MPH | rain 1hr in | rain 24hr in | rain mn in | humidity % | barometer mb |
| 20260510204509 | 68 | 360 | 5.0 | 15.0 | 0.00 | 0.00 | 0.00 | 26 | 1020.7 |
| 20260510203004 | 67 | 360 | 10.0 | 16.0 | 0.00 | 0.00 | 0.00 | 26 | 1021.0 |
| 20260510201559 | 67 | 360 | 4.0 | 13.0 | 0.00 | 0.00 | 0.00 | 26 | 1021.1 |
| 20260510200120 | 66 | 336 | 6.0 | 14.0 | 0.00 | 0.00 | 0.00 | 29 | 1021.4 |
| 20260510194554 | 66 | 360 | 7.0 | 15.0 | 0.00 | 0.00 | 0.00 | 27 | 1021.1 |
| 20260510193053 | 67 | 327 | 4.0 | 15.0 | 0.00 | 0.00 | 0.00 | 27 | 1021.2 |
| 20260510191542 | 66 | 360 | 6.0 | 17.0 | 0.00 | 0.00 | 0.00 | 28 | 1021.2 |
| 20260510190037 | 66 | 360 | 8.0 | 17.0 | 0.00 | 0.00 | 0.00 | 26 | 1021.2 |
| 20260510184535 | 66 | 313 | 1.0 | 13.0 | 0.00 | 0.00 | 0.00 | 26 | 1021.2 |
| 20260510183031 | 65 | 360 | 8.0 | 18.0 | 0.00 | 0.00 | 0.00 | 27 | 1021.3 |
| 20260510181527 | 65 | 312 | 5.0 | 18.0 | 0.00 | 0.00 | 0.00 | 28 | 1021.3 |
| 20260510180023 | 64 | 360 | 2.0 | 13.0 | 0.00 | 0.00 | 0.00 | 28 | 1021.2 |
| 20260510174515 | 64 | 333 | 8.0 | 19.0 | 0.00 | 0.00 | 0.00 | 30 | 1021.3 |
| 20260510173011 | 65 | 342 | 0.0 | 14.0 | 0.00 | 0.00 | 0.00 | 28 | 1021.4 |
| 20260510171510 | 64 | 308 | 1.0 | 12.0 | 0.00 | 0.00 | 0.00 | 30 | 1021.5 |
| 20260510170003 | 64 | 9 | 1.0 | 8.0 | 0.00 | 0.00 | 0.00 | 31 | 1021.5 |
| 20260510164559 | 63 | 261 | 3.0 | 13.0 | 0.00 | 0.00 | 0.00 | 30 | 1021.5 |
| 20260510163055 | 63 | 360 | 2.0 | 12.0 | 0.00 | 0.00 | 0.00 | 30 | 1021.4 |
| 20260510161549 | 63 | 360 | 3.0 | 12.0 | 0.00 | 0.00 | 0.00 | 31 | 1021.1 |
| 20260510160050 | 63 | 30 | 4.0 | 13.0 | 0.00 | 0.00 | 0.00 | 30 | 1021.0 |
| 20260510154540 | 61 | 360 | 4.0 | 10.0 | 0.00 | 0.00 | 0.00 | 33 | 1020.9 |
| 20260510153038 | 62 | 60 | 0.0 | 4.0 | 0.00 | 0.00 | 0.00 | 34 | 1020.8 |
| 20260510151532 | 60 | 252 | 0.0 | 6.0 | 0.00 | 0.00 | 0.00 | 35 | 1020.9 |
| 20260510150039 | 61 | 360 | 0.0 | 5.0 | 0.00 | 0.00 | 0.00 | 36 | 1020.9 |
| 20260510144524 | 59 | 360 | 0.0 | 5.0 | 0.00 | 0.00 | 0.00 | 37 | 1020.8 |
| 20260510143021 | 59 | 360 | 0.0 | 4.0 | 0.00 | 0.00 | 0.00 | 36 | 1020.7 |
| 20260510141524 | 58 | 144 | 0.0 | 3.0 | 0.00 | 0.00 | 0.00 | 37 | 1020.7 |
| 20260510140010 | 57 | 143 | 0.0 | 4.0 | 0.00 | 0.00 | 0.00 | 38 | 1020.5 |
| 20260510134505 | 56 | 113 | 0.0 | 5.0 | 0.00 | 0.00 | 0.00 | 39 | 1020.4 |
| 20260510133001 | 55 | 117 | 0.0 | 7.0 | 0.00 | 0.00 | 0.00 | 39 | 1020.2 |
| 20260510131557 | 55 | 116 | 2.0 | 10.0 | 0.00 | 0.00 | 0.00 | 38 | 1020.1 |
| 20260510130053 | 54 | 128 | 1.0 | 6.0 | 0.00 | 0.00 | 0.00 | 39 | 1019.9 |
| 20260510124556 | 52 | 74 | 0.0 | 0.0 | 0.00 | 0.00 | 0.00 | 35 | 1019.8 |
| 20260510123044 | 51 | 74 | 0.0 | 0.0 | 0.00 | 0.00 | 0.00 | 24 | 1019.7 |
| 20260510121539 | 49 | 74 | 0.0 | 0.0 | 0.00 | 0.00 | 0.00 | 9 | 1019.3 |
| 20260510120034 | 48 | 74 | 0.0 | 0.0 | 0.00 | 0.00 | 0.00 | 1 | 1019.2 |
| 20260510114536 | 47 | 74 | 0.0 | 0.0 | 0.00 | 0.00 | 0.00 | 100 | 1019.0 |
| 20260510113027 | 46 | 74 | 0.0 | 0.0 | 0.00 | 0.00 | 0.00 | 100 | 1018.6 |
| 20260510111522 | 45 | 74 | 0.0 | 0.0 | 0.00 | 0.00 | 0.00 | 100 | 1018.4 |
| 20260510110017 | 45 | 74 | 0.0 | 0.0 | 0.00 | 0.00 | 0.00 | 100 | 1018.3 |
| 20260510104527 | 44 | 74 | 0.0 | 0.0 | 0.00 | 0.00 | 0.00 | 100 | 1017.9 |
| 20260510103012 | 45 | 74 | 0.0 | 0.0 | 0.00 | 0.00 | 0.00 | 100 | 1017.6 |
| 20260510101504 | 45 | 74 | 0.0 | 0.0 | 0.00 | 0.00 | 0.00 | 2 | 1017.6 |
| 20260510100104 | 46 | 74 | 0.0 | 0.0 | 0.00 | 0.00 | 0.00 | 10 | 1017.4 |
| 20260510094556 | 46 | 74 | 0.0 | 0.0 | 0.00 | 0.00 | 0.00 | 19 | 1017.1 |
| 20260510093051 | 46 | 74 | 0.0 | 0.0 | 0.00 | 0.00 | 0.00 | 26 | 1016.9 |
| 20260510091546 | 47 | 74 | 0.0 | 0.0 | 0.00 | 0.00 | 0.00 | 32 | 1016.9 |
| 20260510090048 | 48 | 74 | 0.0 | 0.0 | 0.00 | 0.00 | 0.00 | 34 | 1017.0 |
| 20260510084538 | 48 | 74 | 0.0 | 4.0 | 0.00 | 0.00 | 0.00 | 35 | 1016.9 |
| 20260510083034 | 49 | 69 | 1.0 | 7.0 | 0.00 | 0.00 | 0.00 | 36 | 1016.7 |
| 20260510081537 | 49 | 63 | 1.0 | 5.0 | 0.00 | 0.00 | 0.00 | 35 | 1016.6 |
| 20260510080030 | 50 | 61 | 2.0 | 10.0 | 0.00 | 0.00 | 0.00 | 33 | 1016.2 |
| 20260510074520 | 50 | 96 | 4.0 | 13.0 | 0.00 | 0.00 | 0.00 | 13 | 1015.8 |
| 20260510073016 | 49 | 73 | 0.0 | 4.0 | 0.00 | 0.00 | 0.00 | 100 | 1015.6 |
| 20260510071511 | 49 | 89 | 0.0 | 3.0 | 0.00 | 0.00 | 0.00 | 100 | 1015.2 |
| 20260510070007 | 49 | 97 | 0.0 | 0.0 | 0.00 | 0.00 | 0.00 | 100 | 1014.9 |
| 20260510064502 | 49 | 97 | 0.0 | 0.0 | 0.00 | 0.00 | 0.00 | 100 | 1014.7 |
| 20260510063105 | 50 | 97 | 0.0 | 0.0 | 0.00 | 0.00 | 0.00 | 100 | 1014.5 |
| 20260510061602 | 50 | 97 | 0.0 | 0.0 | 0.00 | 0.00 | 0.00 | 100 | 1014.4 |
| 20260510060051 | 51 | 97 | 0.0 | 0.0 | 0.00 | 0.00 | 0.00 | 100 | 1014.3 |
| 20260510054557 | 52 | 97 | 0.0 | 0.0 | 0.00 | 0.00 | 0.00 | 100 | 1014.2 |
| 20260510053043 | 52 | 97 | 0.0 | 0.0 | 0.00 | 0.00 | 0.00 | 18 | 1014.0 |
| 20260510051539 | 53 | 97 | 0.0 | 0.0 | 0.00 | 0.00 | 0.00 | 23 | 1013.8 |
| 20260510050035 | 53 | 97 | 0.0 | 0.0 | 0.00 | 0.00 | 0.00 | 36 | 1013.4 |
| 20260510044536 | 53 | 97 | 0.0 | 0.0 | 0.00 | 0.00 | 0.00 | 48 | 1013.2 |
| 20260510043025 | 54 | 97 | 0.0 | 0.0 | 0.00 | 0.00 | 0.00 | 50 | 1013.0 |
| 20260510041521 | 56 | 97 | 0.0 | 0.0 | 0.00 | 0.00 | 0.00 | 49 | 1012.7 |
| 20260510040018 | 56 | 97 | 0.0 | 0.0 | 0.00 | 0.00 | 0.00 | 49 | 1012.5 |
| 20260510034513 | 56 | 97 | 0.0 | 0.0 | 0.00 | 0.00 | 0.00 | 50 | 1012.3 |
| 20260510033008 | 57 | 97 | 0.0 | 0.0 | 0.00 | 0.00 | 0.00 | 50 | 1012.1 |
| 20260510031504 | 58 | 97 | 0.0 | 3.0 | 0.00 | 0.00 | 0.00 | 48 | 1012.0 |
| 20260510030100 | 60 | 110 | 1.0 | 5.0 | 0.00 | 0.00 | 0.00 | 47 | 1011.9 |
| 20260510024610 | 62 | 44 | 0.0 | 4.0 | 0.00 | 0.00 | 0.00 | 44 | 1011.4 |
| 20260510023057 | 62 | 323 | 0.0 | 0.0 | 0.00 | 0.00 | 0.00 | 42 | 1011.0 |
| 20260510021547 | 63 | 323 | 0.0 | 0.0 | 0.00 | 0.00 | 0.00 | 41 | 1010.6 |
| 20260510020043 | 64 | 323 | 0.0 | 2.0 | 0.00 | 0.00 | 0.00 | 39 | 1010.2 |
| 20260510014538 | 65 | 313 | 0.0 | 4.0 | 0.00 | 0.00 | 0.00 | 39 | 1010.1 |
| 20260510013033 | 65 | 321 | 0.0 | 5.0 | 0.00 | 0.00 | 0.00 | 38 | 1009.8 |
| 20260510011530 | 66 | 315 | 0.0 | 5.0 | 0.00 | 0.00 | 0.00 | 37 | 1009.1 |
| 20260510010025 | 67 | 321 | 0.0 | 9.0 | 0.00 | 0.00 | 0.00 | 37 | 1008.7 |
| 20260510004521 | 69 | 309 | 0.0 | 11.0 | 0.00 | 0.00 | 0.00 | 37 | 1008.4 |
| 20260510003016 | 70 | 325 | 1.0 | 11.0 | 0.00 | 0.00 | 0.00 | 35 | 1008.0 |
| 20260510001511 | 71 | 360 | 2.0 | 17.0 | 0.00 | 0.00 | 0.00 | 33 | 1007.7 |
| 20260510000012 | 72 | 360 | 7.0 | 21.0 | 0.00 | 0.00 | 0.00 | 32 | 1007.4 |
| 20260509234503 | 73 | 360 | 9.0 | 20.0 | 0.00 | 0.00 | 0.00 | 32 | 1007.2 |
| 20260509233058 | 73 | 15 | 9.0 | 20.0 | 0.00 | 0.00 | 0.00 | 31 | 1007.0 |
| 20260509231606 | 74 | 360 | 9.0 | 19.0 | 0.00 | 0.00 | 0.00 | 31 | 1006.8 |
| 20260509230050 | 74 | 360 | 10.0 | 22.0 | 0.00 | 0.00 | 0.00 | 31 | 1006.6 |
| 20260509224545 | 73 | 360 | 11.0 | 19.0 | 0.00 | 0.00 | 0.00 | 31 | 1006.5 |
| 20260509223046 | 74 | 304 | 13.0 | 24.0 | 0.00 | 0.00 | 0.00 | 32 | 1006.3 |
| 20260509221541 | 74 | 360 | 14.0 | 25.0 | 0.00 | 0.00 | 0.00 | 31 | 1006.1 |
| 20260509220032 | 75 | 360 | 12.0 | 27.0 | 0.00 | 0.00 | 0.00 | 30 | 1006.0 |
| 20260509214527 | 76 | 360 | 12.0 | 27.0 | 0.00 | 0.00 | 0.00 | 30 | 1005.9 |
| 20260509213023 | 76 | 346 | 16.0 | 29.0 | 0.00 | 0.00 | 0.00 | 29 | 1005.7 |
| 20260509211519 | 76 | 303 | 16.0 | 27.0 | 0.00 | 0.00 | 0.00 | 30 | 1005.6 |
| 20260509210016 | 76 | 250 | 17.0 | 28.0 | 0.00 | 0.00 | 0.00 | 29 | 1005.5 |